Time;durP1;ratioP1;P1;durP2;ratioP2;P2;SDS_P1;SDS_P2;PMS_P1;PMS_P2;Temp;Humidity;BMP_temperature;BMP_pressure;BME280_temperature;BME280_humidity;BME280_pressure;Samples;Min_cycle;Max_cycle;Signal;HPM_P1;HPM_P2
2023/01/19 00:00:04;;;;;;;73.10;14.88;;;6.30;92.80;;;;;;5107166;28;20112;-55
2023/01/19 00:02:30;;;;;;;69.82;15.30;;;6.30;92.80;;;;;;5106993;28;20095;-56
2023/01/19 00:04:57;;;;;;;61.17;14.10;;;6.30;92.80;;;;;;5125477;28;20027;-55
2023/01/19 00:07:22;;;;;;;60.17;13.52;;;6.30;92.80;;;;;;5107159;28;20073;-55
2023/01/19 00:09:48;;;;;;;70.78;13.80;;;6.30;92.80;;;;;;5106794;28;20031;-55
2023/01/19 00:12:13;;;;;;;70.28;14.65;;;6.20;92.70;;;;;;5089840;28;20099;-55
2023/01/19 00:14:39;;;;;;;60.53;13.45;;;6.20;92.70;;;;;;5123771;28;20042;-55
2023/01/19 00:17:04;;;;;;;69.40;13.30;;;6.20;92.70;;;;;;5124958;28;20030;-55
2023/01/19 00:19:30;;;;;;;67.18;13.98;;;6.20;92.80;;;;;;5125042;28;20054;-55
2023/01/19 00:21:56;;;;;;;64.68;12.70;;;6.20;92.80;;;;;;5123511;28;20079;-55
2023/01/19 00:24:21;;;;;;;45.88;12.32;;;6.20;92.80;;;;;;5123882;28;20028;-55
2023/01/19 00:26:47;;;;;;;53.20;13.10;;;6.10;92.70;;;;;;5123538;28;20074;-55
2023/01/19 00:29:14;;;;;;;59.55;13.70;;;6.10;92.70;;;;;;5106580;28;20396;-55
2023/01/19 00:31:39;;;;;;;45.53;11.93;;;6.10;92.90;;;;;;5123743;28;20024;-55
2023/01/19 00:34:05;;;;;;;56.22;13.75;;;6.10;92.90;;;;;;5124942;28;20110;-55
2023/01/19 00:36:31;;;;;;;67.55;12.52;;;6.10;92.80;;;;;;5125108;28;20035;-54
2023/01/19 00:38:57;;;;;;;65.80;13.77;;;6.10;92.80;;;;;;5125000;28;20102;-55
2023/01/19 00:42:38;;;;;;;48.97;11.32;;;6.10;92.90;;;;;;5124893;28;20024;-55
2023/01/19 00:44:08;;;;;;;49.40;12.13;;;6.10;92.90;;;;;;5123698;28;20042;-55
2023/01/19 00:46:34;;;;;;;53.53;11.55;;;6.10;92.80;;;;;;5123634;28;20438;-55
2023/01/19 00:48:59;;;;;;;46.28;12.38;;;6.00;92.80;;;;;;5127248;28;20047;-55
2023/01/19 00:51:25;;;;;;;41.92;10.98;;;6.00;92.70;;;;;;5128636;28;20034;-55
2023/01/19 00:53:50;;;;;;;48.75;11.85;;;6.00;92.70;;;;;;5128783;28;20016;-55
2023/01/19 00:56:16;;;;;;;33.80;10.32;;;6.00;92.60;;;;;;5128455;28;20032;-55
2023/01/19 00:58:43;;;;;;;40.47;11.02;;;6.00;92.40;;;;;;5110196;28;20039;-55
2023/01/19 01:01:08;;;;;;;50.40;11.35;;;6.00;92.40;;;;;;5110494;28;20115;-55
2023/01/19 01:03:34;;;;;;;47.53;11.13;;;6.00;92.40;;;;;;5110126;28;20177;-55
2023/01/19 01:05:59;;;;;;;42.67;11.15;;;6.00;92.60;;;;;;5127074;28;20047;-55
2023/01/19 01:08:25;;;;;;;41.95;10.25;;;5.90;92.50;;;;;;5128328;28;20031;-55
2023/01/19 01:10:51;;;;;;;48.22;11.27;;;5.90;92.50;;;;;;5128393;28;20053;-55
2023/01/19 01:13:16;;;;;;;32.75;9.88;;;5.90;92.50;;;;;;5110006;28;20015;-55
2023/01/19 01:15:42;;;;;;;34.88;10.10;;;5.90;92.50;;;;;;5126839;28;20031;-55
2023/01/19 01:18:08;;;;;;;39.75;10.27;;;5.90;92.60;;;;;;5109862;28;20020;-56
2023/01/19 01:20:36;;;;;;;48.53;12.32;;;5.90;92.50;;;;;;5126805;28;20055;-55
2023/01/19 01:23:02;;;;;;;33.60;9.57;;;5.90;92.60;;;;;;5128239;28;20042;-55
2023/01/19 01:25:29;;;;;;;43.67;10.68;;;5.90;92.60;;;;;;5126712;28;20031;-55
2023/01/19 01:27:55;;;;;;;66.28;11.73;;;5.80;92.50;;;;;;5126435;28;20024;-55
2023/01/19 01:30:20;;;;;;;36.92;9.77;;;5.80;92.60;;;;;;5109533;28;20034;-55
2023/01/19 01:32:46;;;;;;;36.17;10.23;;;5.80;92.60;;;;;;5126601;28;20133;-55
2023/01/19 01:35:12;;;;;;;42.80;9.82;;;5.80;92.60;;;;;;5126501;28;20359;-55
2023/01/19 01:37:37;;;;;;;35.13;10.18;;;5.80;92.60;;;;;;5126502;28;20083;-55
2023/01/19 01:40:04;;;;;;;50.60;11.10;;;5.80;92.60;;;;;;5126523;28;20096;-55
2023/01/19 01:42:30;;;;;;;32.25;9.63;;;5.80;92.60;;;;;;5126289;28;20053;-55
2023/01/19 01:44:57;;;;;;;29.15;9.68;;;5.70;92.60;;;;;;5126374;28;20470;-55
2023/01/19 01:47:47;;;;;;;46.08;9.88;;;5.70;92.60;;;;;;5109155;28;20027;-56
2023/01/19 01:50:21;;;;;;;31.33;8.38;;;5.70;92.60;;;;;;5115961;28;20098;-55
2023/01/19 01:52:50;;;;;;;31.77;10.13;;;5.70;92.60;;;;;;5109546;28;20031;-53
2023/01/19 01:55:16;;;;;;;32.03;9.07;;;5.70;92.60;;;;;;5109393;28;20031;-56
2023/01/19 01:57:44;;;;;;;28.88;9.25;;;5.70;92.60;;;;;;5125478;28;20027;-55
2023/01/19 02:00:10;;;;;;;39.13;10.10;;;5.70;92.60;;;;;;5108942;28;20020;-55
2023/01/19 02:02:51;;;;;;;45.92;9.70;;;5.60;92.50;;;;;;5125818;28;20073;-55
2023/01/19 02:05:30;;;;;;;34.55;9.82;;;5.60;92.50;;;;;;5096151;28;20059;-55
2023/01/19 02:13:45;;;;;;;25.58;9.20;;;5.60;92.50;;;;;;5111675;28;20101;-55
2023/01/19 02:16:12;;;;;;;38.90;8.93;;;5.60;92.50;;;;;;5109291;28;20024;-55
2023/01/19 02:18:37;;;;;;;31.27;9.60;;;5.60;92.50;;;;;;5108854;28;20028;-55
2023/01/19 02:21:12;;;;;;;34.33;10.50;;;5.50;92.40;;;;;;5108624;28;20043;-55
2023/01/19 02:23:54;;;;;;;30.30;9.73;;;5.50;92.50;;;;;;5108749;28;20035;-55
2023/01/19 02:26:27;;;;;;;31.23;9.70;;;5.60;92.40;;;;;;5109258;28;20036;-55
2023/01/19 02:28:58;;;;;;;44.65;10.48;;;5.50;92.40;;;;;;5109011;28;20040;-55
2023/01/19 02:31:24;;;;;;;31.98;9.07;;;5.50;92.40;;;;;;5125513;28;20032;-55
2023/01/19 02:33:49;;;;;;;30.98;9.23;;;5.50;92.40;;;;;;5108315;28;20020;-55
2023/01/19 02:36:16;;;;;;;28.60;10.32;;;5.50;92.40;;;;;;5108356;28;20035;-55
2023/01/19 02:38:42;;;;;;;24.10;9.20;;;5.50;92.40;;;;;;5125222;28;20027;-55
2023/01/19 02:41:08;;;;;;;29.10;10.20;;;5.50;92.40;;;;;;5108533;28;20108;-55
2023/01/19 02:43:34;;;;;;;29.95;10.90;;;5.40;92.40;;;;;;5125130;28;20023;-55
2023/01/19 02:45:59;;;;;;;32.30;11.40;;;5.40;92.40;;;;;;5108234;28;20148;-55
2023/01/19 02:48:25;;;;;;;28.60;10.32;;;5.50;92.50;;;;;;5124765;28;20054;-55
2023/01/19 02:50:53;;;;;;;26.45;10.52;;;5.50;92.60;;;;;;5124850;28;20028;-55
2023/01/19 02:53:21;;;;;;;35.88;10.38;;;5.50;92.60;;;;;;5125095;28;20020;-55
2023/01/19 02:55:54;;;;;;;31.55;10.35;;;5.40;92.60;;;;;;5126304;28;20034;-55
2023/01/19 02:58:20;;;;;;;25.85;9.63;;;5.50;92.70;;;;;;5109285;28;20027;-55
2023/01/19 03:00:55;;;;;;;24.75;9.43;;;5.40;92.70;;;;;;5126387;28;20081;-55
2023/01/19 03:03:27;;;;;;;31.95;10.77;;;5.40;92.70;;;;;;5108708;28;20031;-55
2023/01/19 03:06:08;;;;;;;30.55;10.70;;;5.40;92.70;;;;;;5124752;28;20059;-55
2023/01/19 03:08:57;;;;;;;22.55;9.00;;;5.40;92.70;;;;;;5125995;28;20031;-55
2023/01/19 03:11:23;;;;;;;23.95;10.27;;;5.40;92.70;;;;;;5108067;28;20028;-55
2023/01/19 03:14:09;;;;;;;32.42;9.48;;;5.40;92.70;;;;;;5107708;28;20527;-55
2023/01/19 03:16:44;;;;;;;22.50;9.02;;;5.40;92.60;;;;;;5124270;28;20035;-55
2023/01/19 03:19:15;;;;;;;30.42;10.55;;;5.40;92.60;;;;;;5108532;28;20402;-55
2023/01/19 03:21:41;;;;;;;20.33;9.27;;;5.40;92.60;;;;;;5124408;28;20035;-55
2023/01/19 03:24:07;;;;;;;26.90;9.88;;;5.40;92.90;;;;;;5107567;28;20031;-55
2023/01/19 03:26:36;;;;;;;21.35;10.45;;;5.40;92.60;;;;;;5107446;28;20030;-55
2023/01/19 03:29:02;;;;;;;25.38;10.38;;;5.40;92.60;;;;;;5107626;28;20087;-55
2023/01/19 03:31:28;;;;;;;29.27;10.18;;;5.40;92.60;;;;;;5107434;28;20031;-55
2023/01/19 03:34:05;;;;;;;23.83;10.25;;;5.40;92.60;;;;;;5107418;28;20035;-55
2023/01/19 03:36:43;;;;;;;25.67;10.95;;;5.30;92.60;;;;;;5124193;28;20035;-55
2023/01/19 03:39:09;;;;;;;22.02;10.40;;;5.40;92.60;;;;;;5107355;28;20161;-55
2023/01/19 03:41:35;;;;;;;23.50;9.98;;;5.30;92.50;;;;;;5089917;28;20019;-55
2023/01/19 03:44:00;;;;;;;20.52;9.95;;;5.30;92.50;;;;;;5090428;28;20047;-55
2023/01/19 03:46:26;;;;;;;22.55;9.85;;;5.30;92.50;;;;;;5106966;28;20123;-55
2023/01/19 03:48:51;;;;;;;20.85;9.98;;;5.30;92.60;;;;;;5123873;28;20028;-55
2023/01/19 03:51:18;;;;;;;25.65;10.40;;;5.30;92.60;;;;;;5107401;28;20091;-55
2023/01/19 03:53:44;;;;;;;24.52;10.20;;;5.30;92.70;;;;;;5107322;28;20031;-55
2023/01/19 03:56:27;;;;;;;21.83;9.43;;;5.20;92.60;;;;;;5107013;28;20459;-55
2023/01/19 03:58:53;;;;;;;21.60;9.52;;;5.20;92.60;;;;;;5107013;28;20039;-55
2023/01/19 04:01:22;;;;;;;19.88;9.23;;;5.30;92.70;;;;;;5106808;28;20115;-54
2023/01/19 04:03:51;;;;;;;21.33;9.13;;;5.20;92.70;;;;;;5123891;28;20028;-55
2023/01/19 04:06:17;;;;;;;22.27;9.65;;;5.30;92.70;;;;;;5123911;28;20035;-55
2023/01/19 04:08:42;;;;;;;22.55;9.05;;;5.20;92.80;;;;;;5125282;28;20031;-55
2023/01/19 04:11:08;;;;;;;21.30;8.70;;;5.20;92.80;;;;;;5107059;28;20509;-55
2023/01/19 04:13:34;;;;;;;17.75;8.90;;;5.20;92.70;;;;;;5123654;28;20035;-63
2023/01/19 04:16:00;;;;;;;16.73;9.38;;;5.20;92.70;;;;;;5125129;28;20039;-55
2023/01/19 04:18:27;;;;;;;19.23;8.38;;;5.20;92.50;;;;;;5123809;28;20047;-55
2023/01/19 04:20:53;;;;;;;20.10;10.40;;;5.20;92.30;;;;;;5124514;28;20091;-55
2023/01/19 04:23:18;;;;;;;21.95;9.35;;;5.20;92.30;;;;;;5127951;28;20489;-55
2023/01/19 04:25:44;;;;;;;20.52;9.00;;;5.20;92.30;;;;;;5127967;28;20437;-55
2023/01/19 04:28:09;;;;;;;18.92;9.07;;;5.10;92.20;;;;;;5112000;28;20103;-53
2023/01/19 04:30:35;;;;;;;57.97;12.32;;;5.10;92.20;;;;;;5128087;28;20016;-55
2023/01/19 04:33:00;;;;;;;100.15;15.75;;;5.10;92.10;;;;;;5127927;28;20076;-55
2023/01/19 04:35:26;;;;;;;75.28;12.88;;;5.10;92.00;;;;;;5127805;28;20027;-55
2023/01/19 04:37:51;;;;;;;66.10;12.35;;;5.10;92.00;;;;;;5127556;28;20470;-55
2023/01/19 04:40:17;;;;;;;50.00;11.52;;;5.10;91.90;;;;;;5110821;28;20111;-54
2023/01/19 04:42:44;;;;;;;35.42;10.48;;;5.00;91.80;;;;;;5110469;28;20035;-54
2023/01/19 04:45:10;;;;;;;40.90;10.35;;;5.00;91.70;;;;;;5127790;28;20029;-55
2023/01/19 04:47:36;;;;;;;42.55;10.98;;;5.00;91.70;;;;;;5110256;28;20038;-55
2023/01/19 04:50:01;;;;;;;39.00;10.45;;;5.00;91.70;;;;;;5127544;28;20087;-55
2023/01/19 04:52:33;;;;;;;39.85;10.52;;;5.00;91.70;;;;;;5128820;28;20039;-55
2023/01/19 04:55:00;;;;;;;57.88;12.18;;;4.90;91.60;;;;;;5128769;28;20020;-55
2023/01/19 04:57:25;;;;;;;69.05;12.25;;;4.90;91.60;;;;;;5110412;28;20087;-55
2023/01/19 04:59:51;;;;;;;52.97;11.75;;;4.90;91.60;;;;;;5128569;28;20165;-55
2023/01/19 05:02:16;;;;;;;51.42;10.45;;;4.90;91.50;;;;;;5127394;28;20131;-55
2023/01/19 05:04:42;;;;;;;48.58;10.77;;;5.00;91.60;;;;;;5127143;28;20038;-55
2023/01/19 05:07:07;;;;;;;30.67;10.02;;;4.90;91.50;;;;;;5127218;28;20023;-55
2023/01/19 05:09:34;;;;;;;40.85;11.30;;;4.90;91.50;;;;;;5128457;28;20036;-55
2023/01/19 05:11:59;;;;;;;39.28;10.73;;;4.90;91.50;;;;;;5126832;28;20020;-55
2023/01/19 05:14:25;;;;;;;34.97;9.80;;;4.80;91.50;;;;;;5127021;28;20049;-55
2023/01/19 05:16:50;;;;;;;31.20;10.63;;;4.80;91.40;;;;;;5110076;28;20023;-55
2023/01/19 05:19:16;;;;;;;25.85;9.55;;;4.80;91.40;;;;;;5128454;28;20034;-55
2023/01/19 05:21:41;;;;;;;22.48;9.10;;;4.80;91.40;;;;;;5126726;28;20027;-55
2023/01/19 05:24:07;;;;;;;27.10;8.63;;;4.80;91.40;;;;;;5128012;28;20072;-55
2023/01/19 05:26:33;;;;;;;38.03;9.93;;;4.80;91.40;;;;;;5127905;28;20045;-55
2023/01/19 05:28:58;;;;;;;29.33;9.93;;;4.70;91.40;;;;;;5128075;28;20028;-55
2023/01/19 05:31:24;;;;;;;34.13;8.80;;;4.80;91.60;;;;;;5110064;28;20031;-55
2023/01/19 05:33:49;;;;;;;35.70;9.23;;;4.70;91.60;;;;;;5127243;28;20057;-54
2023/01/19 05:36:15;;;;;;;31.08;9.32;;;4.70;91.70;;;;;;5128174;28;20028;-55
2023/01/19 05:38:40;;;;;;;33.25;8.98;;;4.70;91.70;;;;;;5128073;28;20027;-55
2023/01/19 05:41:06;;;;;;;29.35;8.98;;;4.70;91.80;;;;;;5127762;28;20035;-55
2023/01/19 05:43:31;;;;;;;20.52;8.00;;;4.70;91.90;;;;;;5126293;28;20061;-55
2023/01/19 05:45:57;;;;;;;27.50;8.65;;;4.70;91.90;;;;;;5126566;28;20147;-55
2023/01/19 05:48:23;;;;;;;27.92;8.82;;;4.70;92.00;;;;;;5109015;28;20028;-55
2023/01/19 05:50:48;;;;;;;30.05;8.05;;;4.70;92.00;;;;;;5127827;28;20083;-55
2023/01/19 05:53:15;;;;;;;30.30;8.57;;;4.70;92.00;;;;;;5109237;28;20020;-55
2023/01/19 05:55:41;;;;;;;21.25;7.70;;;4.70;92.00;;;;;;5126233;28;20031;-55
2023/01/19 05:58:06;;;;;;;24.83;9.13;;;4.70;92.10;;;;;;5126193;28;20027;-55
2023/01/19 06:00:32;;;;;;;22.48;8.27;;;4.60;92.10;;;;;;5109102;28;20028;-55
2023/01/19 06:02:59;;;;;;;16.88;7.80;;;4.70;92.20;;;;;;5127544;28;20097;-55
2023/01/19 06:05:24;;;;;;;22.70;8.55;;;4.70;92.20;;;;;;5109157;28;20392;-56
2023/01/19 06:07:50;;;;;;;29.42;8.13;;;4.60;92.10;;;;;;5125955;28;20024;-55
2023/01/19 06:10:16;;;;;;;17.73;8.07;;;4.60;92.10;;;;;;5126010;28;20047;-55
2023/01/19 06:12:41;;;;;;;21.23;8.55;;;4.60;92.20;;;;;;5127338;28;20034;-55
2023/01/19 06:15:07;;;;;;;25.70;8.55;;;4.60;92.50;;;;;;5108768;28;20039;-55
2023/01/19 06:17:33;;;;;;;33.90;7.95;;;4.60;92.20;;;;;;5125652;28;20103;-55
2023/01/19 06:19:58;;;;;;;19.80;7.43;;;4.60;92.10;;;;;;5108649;28;20028;-55
2023/01/19 06:22:24;;;;;;;26.30;8.52;;;4.60;92.10;;;;;;5126990;28;20439;-55
2023/01/19 06:24:49;;;;;;;18.23;8.00;;;4.60;92.10;;;;;;5125836;28;20468;-55
2023/01/19 06:27:15;;;;;;;24.80;7.97;;;4.50;92.00;;;;;;5126981;28;20044;-55
2023/01/19 06:29:40;;;;;;;25.73;7.72;;;4.50;92.00;;;;;;5108624;28;20032;-56
2023/01/19 06:32:06;;;;;;;26.83;7.30;;;4.60;92.00;;;;;;5125470;28;20030;-55
2023/01/19 06:34:32;;;;;;;20.63;7.25;;;4.50;91.90;;;;;;5125474;28;20087;-55
2023/01/19 06:36:57;;;;;;;15.90;7.18;;;4.50;91.90;;;;;;5108211;28;20072;-55
2023/01/19 06:39:23;;;;;;;17.40;7.07;;;4.50;92.00;;;;;;5125280;28;20074;-55
2023/01/19 06:41:49;;;;;;;17.88;7.10;;;4.50;92.30;;;;;;5125339;28;20336;-55
2023/01/19 06:44:14;;;;;;;20.05;7.50;;;4.50;92.00;;;;;;5125692;28;20458;-56
2023/01/19 06:46:40;;;;;;;21.65;7.38;;;4.40;91.90;;;;;;5125029;28;20520;-55
2023/01/19 06:49:06;;;;;;;16.38;6.90;;;4.40;92.10;;;;;;5125286;28;20028;-56
2023/01/19 06:51:32;;;;;;;25.08;7.28;;;4.40;91.90;;;;;;5125116;28;20028;-55
2023/01/19 06:53:57;;;;;;;19.00;7.07;;;4.40;91.90;;;;;;5125127;28;20031;-55
2023/01/19 06:56:23;;;;;;;22.33;7.47;;;4.40;91.90;;;;;;5125032;28;20027;-55
2023/01/19 06:58:49;;;;;;;16.35;7.00;;;4.30;91.80;;;;;;5124999;28;20027;-55
2023/01/19 07:01:15;;;;;;;20.75;6.30;;;4.30;91.80;;;;;;5126273;28;20382;-56
2023/01/19 07:03:40;;;;;;;14.05;7.25;;;4.30;91.70;;;;;;5076306;28;20034;-56
2023/01/19 07:06:06;;;;;;;13.40;6.55;;;4.30;91.80;;;;;;5086894;28;20078;-55
2023/01/19 07:08:32;;;;;;;12.80;6.95;;;4.30;91.70;;;;;;5103380;28;20020;-55
2023/01/19 07:11:04;;;;;;;16.00;6.72;;;4.30;91.70;;;;;;5101418;28;20179;-55
2023/01/19 07:13:30;;;;;;;11.55;6.47;;;4.30;91.70;;;;;;5101456;28;20073;-55
2023/01/19 07:15:55;;;;;;;14.95;7.32;;;4.30;91.70;;;;;;5103352;28;20127;-55
2023/01/19 07:18:21;;;;;;;16.10;6.80;;;4.30;91.70;;;;;;5102154;28;20024;-55
2023/01/19 07:20:48;;;;;;;19.20;6.90;;;4.20;91.70;;;;;;5102316;28;20032;-55
2023/01/19 07:23:14;;;;;;;11.73;6.68;;;4.30;91.70;;;;;;5102235;28;20039;-55
2023/01/19 07:25:40;;;;;;;11.95;7.05;;;4.20;91.60;;;;;;5101607;28;20085;-55
2023/01/19 07:28:05;;;;;;;15.65;6.43;;;4.20;91.60;;;;;;5102233;28;20020;-55
2023/01/19 07:30:31;;;;;;;15.32;7.30;;;4.20;91.60;;;;;;5083583;28;20060;-58
2023/01/19 07:32:56;;;;;;;14.43;7.00;;;4.20;91.60;;;;;;5093051;28;20024;-55
2023/01/19 07:35:23;;;;;;;14.73;7.18;;;4.20;91.50;;;;;;5103846;28;20079;-55
2023/01/19 07:37:48;;;;;;;21.90;7.90;;;4.20;91.50;;;;;;5103138;28;20028;-55
2023/01/19 07:40:14;;;;;;;28.08;9.23;;;4.20;91.40;;;;;;5105128;28;20040;-55
2023/01/19 07:42:48;;;;;;;38.92;8.93;;;4.20;91.50;;;;;;5102375;28;20036;-55
2023/01/19 07:45:17;;;;;;;23.02;7.10;;;4.20;91.40;;;;;;5082904;28;20114;-55
2023/01/19 07:47:43;;;;;;;16.33;6.97;;;4.10;91.20;;;;;;5104147;28;20028;-55
2023/01/19 07:50:10;;;;;;;22.13;7.85;;;4.20;91.20;;;;;;5099417;28;20535;-55
2023/01/19 07:52:35;;;;;;;28.08;6.85;;;4.10;91.00;;;;;;5099562;28;20035;-55
2023/01/19 07:55:01;;;;;;;23.48;8.35;;;4.10;91.00;;;;;;5101745;28;20031;-55
2023/01/19 07:57:27;;;;;;;35.63;8.32;;;4.10;90.90;;;;;;5101560;28;20027;-55
2023/01/19 07:59:52;;;;;;;37.60;8.35;;;4.10;90.90;;;;;;5097962;28;20428;-55
2023/01/19 08:02:18;;;;;;;27.58;7.28;;;4.10;90.90;;;;;;5101304;28;20036;-55
2023/01/19 08:04:46;;;;;;;26.48;8.30;;;4.10;90.90;;;;;;5100766;28;20542;-55
2023/01/19 08:07:11;;;;;;;34.17;8.65;;;4.10;90.90;;;;;;5100420;28;20122;-55
2023/01/19 08:09:37;;;;;;;22.42;7.82;;;4.00;91.00;;;;;;5085606;28;20024;-55
2023/01/19 08:12:03;;;;;;;37.55;8.05;;;4.00;91.00;;;;;;5101833;28;21274;-55
2023/01/19 08:14:28;;;;;;;48.42;9.40;;;4.10;91.00;;;;;;5102353;28;20093;-55
2023/01/19 08:16:58;;;;;;;38.28;9.40;;;4.00;91.00;;;;;;5103321;28;20024;-55
2023/01/19 08:19:23;;;;;;;41.45;9.30;;;4.00;91.00;;;;;;5064286;28;20056;-55
2023/01/19 08:21:49;;;;;;;29.05;8.75;;;4.00;91.10;;;;;;5091142;28;20016;-55
2023/01/19 08:24:20;;;;;;;30.60;9.27;;;4.00;91.30;;;;;;5098424;28;20127;-56
2023/01/19 08:26:45;;;;;;;36.63;9.40;;;4.10;91.00;;;;;;5099494;28;20054;-55
2023/01/19 08:29:11;;;;;;;45.80;9.20;;;4.10;91.00;;;;;;5100770;28;20032;-56
2023/01/19 08:31:37;;;;;;;34.15;8.43;;;4.10;90.90;;;;;;5104547;28;20020;-55
2023/01/19 08:34:02;;;;;;;40.20;10.02;;;4.10;90.90;;;;;;5103264;28;20406;-55
2023/01/19 08:36:28;;;;;;;42.13;11.07;;;4.10;90.90;;;;;;5101490;28;20064;-55
2023/01/19 08:38:53;;;;;;;63.40;10.48;;;4.10;90.90;;;;;;5094760;28;20040;-55
2023/01/19 08:41:19;;;;;;;54.08;9.70;;;4.10;90.90;;;;;;5098715;28;20039;-55
2023/01/19 08:43:45;;;;;;;34.03;9.75;;;4.10;91.00;;;;;;5103270;28;20036;-55
2023/01/19 08:46:10;;;;;;;43.13;8.70;;;4.10;90.90;;;;;;5104296;28;20039;-55
2023/01/19 08:48:36;;;;;;;28.48;8.68;;;4.10;90.90;;;;;;5101368;28;20032;-55
2023/01/19 08:51:02;;;;;;;43.13;10.02;;;4.10;90.90;;;;;;5092932;28;20066;-55
2023/01/19 08:53:27;;;;;;;40.75;9.40;;;4.10;90.90;;;;;;5100282;28;20165;-55
2023/01/19 08:55:56;;;;;;;40.92;9.98;;;4.10;90.90;;;;;;5102392;28;20036;-56
2023/01/19 08:58:22;;;;;;;42.80;9.63;;;4.10;90.90;;;;;;5093506;28;20020;-55
2023/01/19 09:00:47;;;;;;;31.23;9.07;;;4.10;90.90;;;;;;5084193;28;20025;-55
2023/01/19 09:03:13;;;;;;;42.17;9.63;;;4.10;90.80;;;;;;5103066;28;20028;-56
2023/01/19 09:05:39;;;;;;;32.95;8.90;;;4.10;90.90;;;;;;5098978;28;20093;-55
2023/01/19 09:08:10;;;;;;;38.65;9.65;;;4.10;90.80;;;;;;5102735;28;20028;-55
2023/01/19 09:10:36;;;;;;;32.53;9.32;;;4.10;90.80;;;;;;5107563;28;20058;-56
2023/01/19 09:13:07;;;;;;;33.58;9.90;;;4.20;90.80;;;;;;5105204;28;20028;-55
2023/01/19 09:15:34;;;;;;;40.35;9.85;;;4.20;90.80;;;;;;5099120;28;20029;-55
2023/01/19 09:18:00;;;;;;;43.13;8.43;;;4.20;90.80;;;;;;5089543;28;20051;-55
2023/01/19 09:20:27;;;;;;;53.28;9.35;;;4.10;90.70;;;;;;5105528;28;20082;-55
2023/01/19 09:22:54;;;;;;;43.30;9.27;;;4.20;90.80;;;;;;5102519;28;20024;-54
2023/01/19 09:25:20;;;;;;;39.25;10.10;;;4.20;90.80;;;;;;5105963;28;20028;-55
2023/01/19 09:27:45;;;;;;;35.95;9.60;;;4.20;90.80;;;;;;5107769;28;20028;-57
2023/01/19 09:30:11;;;;;;;29.95;8.07;;;4.20;90.80;;;;;;5103648;28;20119;-55
2023/01/19 09:32:37;;;;;;;25.67;8.43;;;4.20;90.80;;;;;;5105791;28;20032;-55
2023/01/19 09:35:02;;;;;;;31.45;8.43;;;4.20;90.80;;;;;;5091548;28;20032;-55
2023/01/19 09:37:28;;;;;;;54.63;8.88;;;4.20;90.80;;;;;;5103114;28;20426;-55
2023/01/19 09:39:54;;;;;;;22.08;8.73;;;4.20;90.90;;;;;;5106612;28;20135;-55
2023/01/19 09:42:38;;;;;;;30.20;7.28;;;4.20;91.10;;;;;;5104956;28;20024;-55
2023/01/19 09:45:09;;;;;;;36.17;8.57;;;4.20;90.80;;;;;;5107356;28;20096;-55
2023/01/19 09:47:35;;;;;;;30.08;8.23;;;4.20;90.80;;;;;;5088858;28;20028;-55
2023/01/19 09:50:09;;;;;;;37.13;8.35;;;4.20;90.80;;;;;;5087248;28;20059;-54
2023/01/19 09:52:35;;;;;;;35.25;8.75;;;4.20;90.80;;;;;;5084824;28;20025;-55
2023/01/19 09:55:01;;;;;;;33.13;7.80;;;4.20;90.80;;;;;;5089492;28;20020;-55
2023/01/19 09:57:26;;;;;;;27.45;7.80;;;4.20;90.70;;;;;;5104747;28;20088;-55
2023/01/19 09:59:56;;;;;;;26.38;8.75;;;4.20;90.70;;;;;;5105284;28;20085;-57
2023/01/19 10:02:35;;;;;;;32.22;8.73;;;4.20;90.70;;;;;;5088384;28;20020;-58
2023/01/19 10:05:01;;;;;;;22.55;7.03;;;4.20;90.70;;;;;;5104044;28;20054;-56
2023/01/19 10:07:53;;;;;;;34.97;7.63;;;4.20;90.70;;;;;;5104783;28;20020;-55
2023/01/19 10:10:20;;;;;;;22.92;7.07;;;4.20;90.70;;;;;;5104453;28;20036;-64
2023/01/19 10:13:10;;;;;;;30.42;7.57;;;4.20;90.70;;;;;;5071473;28;20016;-56
2023/01/19 10:15:53;;;;;;;25.20;8.38;;;4.30;90.70;;;;;;5105246;28;20036;-56
2023/01/19 10:18:24;;;;;;;27.08;7.32;;;4.30;91.00;;;;;;5085196;28;20029;-56
2023/01/19 10:20:58;;;;;;;31.48;8.10;;;4.30;90.70;;;;;;5101500;28;20070;-63
2023/01/19 10:23:33;;;;;;;31.65;7.95;;;4.30;90.60;;;;;;5103748;28;20047;-56
2023/01/19 10:26:00;;;;;;;35.13;7.60;;;4.30;90.60;;;;;;5088349;28;20024;-55
2023/01/19 10:28:25;;;;;;;29.38;7.18;;;4.30;90.60;;;;;;5103939;28;20043;-55
2023/01/19 10:30:52;;;;;;;38.70;7.95;;;4.20;90.60;;;;;;5104696;28;20024;-55
2023/01/19 10:33:18;;;;;;;29.60;8.38;;;4.20;90.60;;;;;;5103119;28;20112;-55
2023/01/19 10:35:44;;;;;;;31.90;7.80;;;4.20;90.70;;;;;;5087304;28;20051;-55
2023/01/19 10:38:12;;;;;;;30.23;7.88;;;4.20;90.70;;;;;;5106295;28;20375;-55
2023/01/19 10:40:57;;;;;;;34.67;7.95;;;4.20;90.70;;;;;;5070406;28;20068;-55
2023/01/19 10:43:40;;;;;;;42.28;8.30;;;4.30;90.80;;;;;;5104389;28;20062;-56
2023/01/19 10:46:25;;;;;;;37.45;8.32;;;4.20;90.80;;;;;;5104801;28;20048;-55
2023/01/19 10:48:52;;;;;;;29.65;8.85;;;4.30;90.70;;;;;;5089869;28;20108;-55
2023/01/19 10:51:17;;;;;;;56.72;8.90;;;4.30;90.70;;;;;;5103050;28;20089;-55
2023/01/19 10:53:52;;;;;;;45.40;9.38;;;4.30;90.70;;;;;;5070377;28;20028;-55
2023/01/19 10:56:33;;;;;;;43.90;8.98;;;4.30;90.80;;;;;;5085609;28;20024;-55
2023/01/19 10:58:59;;;;;;;42.58;8.60;;;4.30;90.70;;;;;;5102559;28;20099;-54
2023/01/19 11:01:26;;;;;;;27.98;8.13;;;4.30;90.70;;;;;;5103206;28;20178;-55
2023/01/19 11:03:52;;;;;;;41.50;8.25;;;4.30;90.70;;;;;;5083842;28;20176;-55
2023/01/19 11:06:28;;;;;;;34.20;8.05;;;4.30;90.60;;;;;;5104138;28;20032;-61
2023/01/19 11:09:09;;;;;;;38.05;7.22;;;4.30;90.60;;;;;;5085544;28;20046;-58
2023/01/19 11:11:50;;;;;;;43.45;8.98;;;4.30;90.50;;;;;;5103701;28;20043;-56
2023/01/19 11:14:21;;;;;;;37.10;8.38;;;4.30;90.50;;;;;;5102324;28;20055;-56
2023/01/19 11:16:49;;;;;;;38.85;8.20;;;4.30;90.40;;;;;;5103238;28;20023;-67
2023/01/19 11:19:21;;;;;;;41.55;8.18;;;4.30;90.40;;;;;;5085745;28;20126;-55
2023/01/19 11:21:46;;;;;;;60.28;10.57;;;4.30;90.40;;;;;;5102227;28;20051;-55
2023/01/19 11:24:15;;;;;;;57.10;10.00;;;4.30;90.30;;;;;;5084552;28;20028;-55
2023/01/19 11:26:48;;;;;;;57.22;9.88;;;4.40;90.30;;;;;;5103474;28;20473;-55
2023/01/19 11:29:21;;;;;;;50.22;9.07;;;4.40;90.30;;;;;;5100268;28;20077;-55
2023/01/19 11:31:47;;;;;;;33.60;7.72;;;4.40;90.20;;;;;;5101961;28;20039;-57
2023/01/19 11:34:39;;;;;;;44.00;8.10;;;4.40;90.20;;;;;;5100884;28;20020;-55
2023/01/19 11:37:17;;;;;;;42.92;8.63;;;4.40;90.10;;;;;;5098296;28;20040;-55
2023/01/19 11:39:47;;;;;;;51.08;8.48;;;4.40;90.10;;;;;;5102672;28;20020;-55
2023/01/19 11:42:13;;;;;;;55.78;9.05;;;4.40;90.20;;;;;;5082293;28;20036;-55
2023/01/19 11:45:02;;;;;;;48.90;8.35;;;4.40;90.00;;;;;;5088167;28;20028;-55
2023/01/19 11:47:50;;;;;;;49.72;9.63;;;4.40;90.00;;;;;;5080383;28;20045;-55
2023/01/19 11:50:23;;;;;;;65.20;9.13;;;4.40;90.00;;;;;;5101551;28;20077;-55
2023/01/19 11:53:11;;;;;;;42.05;8.57;;;4.40;90.00;;;;;;5103905;28;20051;-56
2023/01/19 11:55:48;;;;;;;71.70;11.65;;;4.40;90.10;;;;;;5100435;28;20028;-55
2023/01/19 11:58:15;;;;;;;66.55;10.60;;;4.40;90.00;;;;;;5086680;28;20042;-56
2023/01/19 12:01:03;;;;;;;57.03;10.38;;;4.40;90.00;;;;;;5102566;28;20116;-55
2023/01/19 12:03:30;;;;;;;65.75;10.32;;;4.50;90.00;;;;;;5101992;28;20020;-55
2023/01/19 12:06:03;;;;;;;76.10;10.93;;;4.50;90.00;;;;;;5103542;28;20024;-55
2023/01/19 12:08:53;;;;;;;66.35;11.23;;;4.50;89.90;;;;;;5086506;28;20020;-55
2023/01/19 12:11:22;;;;;;;71.95;10.95;;;4.50;89.90;;;;;;5103627;28;20040;-55
2023/01/19 12:13:47;;;;;;;85.43;12.30;;;4.40;89.90;;;;;;5101430;28;20028;-55
2023/01/19 12:16:21;;;;;;;66.82;10.45;;;4.50;90.00;;;;;;5104034;28;20123;-55
2023/01/19 12:18:52;;;;;;;68.22;11.10;;;4.50;89.90;;;;;;5100695;28;20059;-55
2023/01/19 12:21:17;;;;;;;62.80;10.98;;;4.50;89.80;;;;;;5087128;28;20062;-56
2023/01/19 12:24:00;;;;;;;54.50;9.98;;;4.50;89.70;;;;;;5102082;28;20040;-55
2023/01/19 12:26:32;;;;;;;70.68;10.77;;;4.40;89.40;;;;;;5102767;28;20031;-54
2023/01/19 12:29:17;;;;;;;65.78;10.90;;;4.50;89.40;;;;;;5099592;28;20040;-55
2023/01/19 12:31:43;;;;;;;67.10;11.50;;;4.40;89.10;;;;;;5099670;28;20055;-56
2023/01/19 12:34:24;;;;;;;103.03;13.85;;;4.40;89.10;;;;;;5100281;28;20028;-57
2023/01/19 12:36:49;;;;;;;60.35;10.63;;;4.40;89.20;;;;;;5099478;28;20128;-56
2023/01/19 12:39:18;;;;;;;48.78;10.02;;;4.50;89.20;;;;;;5082963;28;20059;-56
2023/01/19 12:41:47;;;;;;;58.53;9.35;;;4.40;88.90;;;;;;5090467;28;20161;-55
2023/01/19 12:44:15;;;;;;;72.10;10.88;;;4.50;88.80;;;;;;5084536;28;20036;-55
2023/01/19 12:46:41;;;;;;;49.75;9.38;;;4.50;88.70;;;;;;5096477;28;20082;-56
2023/01/19 12:49:29;;;;;;;55.38;9.00;;;4.50;88.50;;;;;;5104844;28;20036;-57
2023/01/19 12:52:23;;;;;;;56.78;9.68;;;4.40;88.40;;;;;;5100301;28;20039;-55
2023/01/19 12:55:02;;;;;;;50.47;9.52;;;4.40;88.50;;;;;;5103214;28;20032;-55